DAOO/ORN METAR and TAF weather

Enter ICAO airport designator
Station Type Date Time Source
DAOO METAR 2021/04/13 07:00 UTC NOAA

DAOO 130700Z 03006KT 4000 BR FEW013 SCT023 15/13 Q1021


Station Type Date Time Source
DAOO Decoded METAR 2021/04/13 07:00 UTC NOAA

Oran / Es Senia, Algeria (DAOO) 35-38N 000-36W 90M
Apr 13, 2021 - 03:00 AM EDT / 2021.04.13 0700 UTC
Wind: from the NNE (030 degrees) at 7 MPH (6 KT):0
Visibility: 2 mile(s):0
Sky conditions: partly cloudy
Weather: mist
Temperature: 59 F (15 C)
Dew Point: 55 F (13 C)
Relative Humidity: 87%
Pressure (altimeter): 30.15 in. Hg (1021 hPa)
ob: DAOO 130700Z 03006KT 4000 BR FEW013 SCT023 15/13 Q1021
cycle: 7

Station Type Date Time Source
DAOO TAF 2021/04/13 06:36 UTC NOAA

TAF DAOO 130500Z 1306/1406 01008KT 9999 SCT023 SCT100
BECMG 1312/1315 08010KT PROB30
TEMPO 1306/1309 3000 BR SCT015
BECMG 1322/1401 VRB02KT

Example: see airport list